MST,Max TemperatureF,Mean TemperatureF,Min TemperatureF,Max Dew PointF,MeanDew PointF,Min DewpointF,Max Humidity, Mean Humidity, Min Humidity, Max Sea Level PressureIn, Mean Sea Level PressureIn, Min Sea Level PressureIn, Max VisibilityMiles, Mean VisibilityMiles, Min VisibilityMiles, Max Wind SpeedMPH, Mean Wind SpeedMPH, Max Gust SpeedMPH,PrecipitationIn, CloudCover, Events, WindDirDegrees
2013-1-1,23,10,-3,9,2,-7,100,79,57,30.55,30.43,30.24,10,9,2,7,1,8,T,4,Snow,154
2013-1-2,26,13,-1,11,5,-4,91,73,55,30.60,30.49,30.31,10,10,6,9,2,12,T,3,,128
2013-1-3,21,6,-9,3,-5,-14,87,68,42,30.77,30.66,30.57,10,10,10,7,2,,0.00,0,,122
2013-1-4,24,10,-5,3,-3,-11,79,62,45,30.66,30.56,30.42,10,10,10,7,1,8,0.00,0,,155
2013-1-5,24,9,-7,6,-2,-11,86,64,42,30.76,30.66,30.55,10,10,10,7,1,8,0.00,0,,120
2013-1-6,23,10,-4,9,2,-8,83,68,52,30.66,30.49,30.33,10,10,10,8,1,9,0.00,0,,166
2013-1-7,32,15,-2,11,4,-3,87,65,43,30.40,30.30,30.17,10,10,10,8,2,10,0.00,0,,159
2013-1-8,35,20,4,13,7,0,87,63,38,30.59,30.40,30.26,10,10,10,7,1,8,0.00,1,,150
2013-1-9,36,21,6,17,10,4,91,69,47,30.63,30.48,30.27,10,10,10,7,1,9,0.00,0,,83
2013-1-10,43,25,6,21,14,4,88,66,43,30.22,29.90,29.51,10,10,10,22,3,37,0.00,4,,111
2013-1-11,40,24,7,27,16,-1,92,70,47,30.04,29.60,29.41,10,3,0,40,13,53,0.00,7,Fog-Snow,258
2013-1-12,19,8,-3,3,-3,-9,87,66,45,30.22,30.13,30.06,10,10,10,8,3,8,0.00,4,,179
2013-1-13,16,7,-3,5,-3,-8,80,68,55,30.31,30.19,29.99,10,9,2,16,2,20,T,7,Snow,302
2013-1-14,14,0,-14,-4,-11,-18,83,65,46,30.58,30.43,30.31,10,10,10,9,2,12,0.00,1,,143
2013-1-15,15,1,-14,-2,-9,-20,77,60,42,30.76,30.69,30.58,10,10,10,8,2,9,0.00,6,,149
2013-1-16,29,14,-2,8,0,-8,79,61,42,30.82,30.72,30.61,10,10,10,10,2,12,0.00,0,,155
2013-1-17,32,17,1,13,6,-4,95,71,47,30.83,30.71,30.60,10,10,10,8,2,9,0.00,0,,187
2013-1-18,33,17,1,14,6,-1,95,69,43,30.72,30.62,30.49,10,10,10,12,3,13,0.00,0,,195
2013-1-19,35,19,2,14,6,0,88,65,41,30.74,30.62,30.53,10,10,10,12,4,13,0.00,0,,253
2013-1-20,34,18,1,12,5,-1,91,63,35,30.66,30.56,30.42,10,10,10,10,4,10,0.00,0,,262
2013-1-21,36,20,3,14,6,-1,86,61,35,30.65,30.54,30.44,10,10,10,12,5,13,0.00,0,,253
2013-1-22,37,20,2,13,5,-1,86,61,35,30.66,30.57,30.47,10,10,10,12,5,14,0.00,0,,246
2013-1-23,34,19,4,13,6,-1,83,59,35,30.68,30.58,30.49,10,10,10,12,4,12,0.00,0,,235
2013-1-24,33,24,14,25,17,8,84,67,49,30.51,30.46,30.34,10,10,9,10,3,12,0.00,6,,236
2013-1-25,37,33,29,32,29,25,96,86,76,30.41,30.30,30.23,10,4,0,10,1,10,T,8,Fog-Rain,263
2013-1-26,40,36,32,36,33,30,100,90,79,30.25,30.03,29.83,10,2,0,13,1,14,0.16,8,Fog-Rain-Snow,82
2013-1-27,40,36,32,34,32,30,100,90,79,29.94,29.87,29.76,10,5,0,13,3,16,0.10,7,Fog-Rain-Snow,133
2013-1-28,39,31,22,34,27,16,100,87,74,29.91,29.75,29.70,10,4,0,23,10,30,0.32,8,Fog-Rain-Snow,281
2013-1-29,25,14,3,14,9,1,88,72,55,30.21,30.01,29.87,10,10,5,17,4,20,T,6,Snow,228
2013-1-30,22,13,3,20,15,3,92,86,80,30.34,30.22,30.09,10,5,0,9,3,12,0.04,7,Fog-Snow,238
2013-1-31,33,21,9,22,16,9,92,77,61,30.49,30.33,30.21,10,5,0,13,4,13,T,5,Fog-Snow,210